sensor_id;sensor_type;location;lat;lon;timestamp;temperature;humidity
21582;DHT22;10952;50.836;4.348;2022-10-17T00:01:11;17.80;99.90
21582;DHT22;10952;50.836;4.348;2022-10-17T00:03:38;17.80;99.90
21582;DHT22;10952;50.836;4.348;2022-10-17T00:06:06;17.90;99.90
21582;DHT22;10952;50.836;4.348;2022-10-17T00:08:32;17.90;99.90
21582;DHT22;10952;50.836;4.348;2022-10-17T00:11:01;17.90;99.90
21582;DHT22;10952;50.836;4.348;2022-10-17T00:13:27;17.90;99.90
21582;DHT22;10952;50.836;4.348;2022-10-17T00:15:53;17.90;99.90
21582;DHT22;10952;50.836;4.348;2022-10-17T00:18:19;17.90;99.90
21582;DHT22;10952;50.836;4.348;2022-10-17T00:20:45;18.10;99.90
21582;DHT22;10952;50.836;4.348;2022-10-17T00:23:11;18.10;99.90
21582;DHT22;10952;50.836;4.348;2022-10-17T00:25:36;18.10;99.90
21582;DHT22;10952;50.836;4.348;2022-10-17T00:28:02;18.20;99.90
21582;DHT22;10952;50.836;4.348;2022-10-17T00:30:29;18.20;99.90
21582;DHT22;10952;50.836;4.348;2022-10-17T00:32:57;18.20;99.90
21582;DHT22;10952;50.836;4.348;2022-10-17T00:35:22;18.20;99.90
21582;DHT22;10952;50.836;4.348;2022-10-17T00:37:48;18.10;99.90
21582;DHT22;10952;50.836;4.348;2022-10-17T00:40:14;18.20;99.90
21582;DHT22;10952;50.836;4.348;2022-10-17T00:42:39;18.00;99.90
21582;DHT22;10952;50.836;4.348;2022-10-17T00:45:26;18.00;99.90
21582;DHT22;10952;50.836;4.348;2022-10-17T00:47:58;18.00;99.90
21582;DHT22;10952;50.836;4.348;2022-10-17T00:50:25;18.00;99.90
21582;DHT22;10952;50.836;4.348;2022-10-17T00:52:51;18.00;99.90
21582;DHT22;10952;50.836;4.348;2022-10-17T00:55:24;18.00;99.90
21582;DHT22;10952;50.836;4.348;2022-10-17T00:57:53;18.00;99.90
21582;DHT22;10952;50.836;4.348;2022-10-17T01:00:20;18.20;99.90
21582;DHT22;10952;50.836;4.348;2022-10-17T01:02:47;18.20;99.90
21582;DHT22;10952;50.836;4.348;2022-10-17T01:05:14;18.20;99.90
21582;DHT22;10952;50.836;4.348;2022-10-17T01:07:41;18.20;99.90
21582;DHT22;10952;50.836;4.348;2022-10-17T01:10:08;18.20;99.90
21582;DHT22;10952;50.836;4.348;2022-10-17T01:12:47;18.20;99.90
21582;DHT22;10952;50.836;4.348;2022-10-17T01:15:44;18.30;99.90
21582;DHT22;10952;50.836;4.348;2022-10-17T01:29:32;18.30;99.90
21582;DHT22;10952;50.836;4.348;2022-10-17T01:32:11;18.40;99.90
21582;DHT22;10952;50.836;4.348;2022-10-17T01:34:52;18.30;99.90
21582;DHT22;10952;50.836;4.348;2022-10-17T01:38:00;18.40;99.90
21582;DHT22;10952;50.836;4.348;2022-10-17T01:43:31;18.40;99.90
21582;DHT22;10952;50.836;4.348;2022-10-17T01:46:05;18.40;99.90
21582;DHT22;10952;50.836;4.348;2022-10-17T01:48:35;18.40;99.90
21582;DHT22;10952;50.836;4.348;2022-10-17T01:51:16;18.40;99.90
21582;DHT22;10952;50.836;4.348;2022-10-17T01:56:36;18.40;99.90
21582;DHT22;10952;50.836;4.348;2022-10-17T01:59:14;18.50;99.90
21582;DHT22;10952;50.836;4.348;2022-10-17T02:01:43;18.50;99.90
21582;DHT22;10952;50.836;4.348;2022-10-17T02:04:11;18.70;99.90
21582;DHT22;10952;50.836;4.348;2022-10-17T02:06:37;18.80;99.90
21582;DHT22;10952;50.836;4.348;2022-10-17T02:09:25;18.80;99.90
21582;DHT22;10952;50.836;4.348;2022-10-17T02:12:26;18.90;99.90
21582;DHT22;10952;50.836;4.348;2022-10-17T02:26:19;19.00;99.90
21582;DHT22;10952;50.836;4.348;2022-10-17T02:29:01;19.10;99.90
21582;DHT22;10952;50.836;4.348;2022-10-17T02:32:03;19.10;99.90
21582;DHT22;10952;50.836;4.348;2022-10-17T02:34:48;19.10;99.90
21582;DHT22;10952;50.836;4.348;2022-10-17T02:37:18;19.10;99.90
21582;DHT22;10952;50.836;4.348;2022-10-17T02:39:46;19.10;99.90
21582;DHT22;10952;50.836;4.348;2022-10-17T02:42:13;19.10;99.90
21582;DHT22;10952;50.836;4.348;2022-10-17T02:44:42;19.10;99.90
21582;DHT22;10952;50.836;4.348;2022-10-17T02:47:17;19.10;99.90
21582;DHT22;10952;50.836;4.348;2022-10-17T02:49:49;19.00;99.90
21582;DHT22;10952;50.836;4.348;2022-10-17T02:55:07;18.80;99.90
21582;DHT22;10952;50.836;4.348;2022-10-17T02:57:41;18.90;99.90
21582;DHT22;10952;50.836;4.348;2022-10-17T03:00:11;18.80;99.90
21582;DHT22;10952;50.836;4.348;2022-10-17T03:02:43;18.80;99.90
21582;DHT22;10952;50.836;4.348;2022-10-17T03:05:11;18.80;99.90
21582;DHT22;10952;50.836;4.348;2022-10-17T03:07:37;18.90;99.90
21582;DHT22;10952;50.836;4.348;2022-10-17T03:10:03;18.90;99.90
21582;DHT22;10952;50.836;4.348;2022-10-17T03:12:29;18.90;99.90
21582;DHT22;10952;50.836;4.348;2022-10-17T03:14:54;18.90;99.90
21582;DHT22;10952;50.836;4.348;2022-10-17T03:17:20;18.90;99.90
21582;DHT22;10952;50.836;4.348;2022-10-17T03:19:45;18.90;99.90
21582;DHT22;10952;50.836;4.348;2022-10-17T03:22:11;19.00;99.90
21582;DHT22;10952;50.836;4.348;2022-10-17T03:24:37;18.90;99.90
21582;DHT22;10952;50.836;4.348;2022-10-17T03:27:02;19.00;99.90
21582;DHT22;10952;50.836;4.348;2022-10-17T03:29:28;19.00;99.90
21582;DHT22;10952;50.836;4.348;2022-10-17T03:31:54;19.00;99.90
21582;DHT22;10952;50.836;4.348;2022-10-17T03:34:19;19.00;99.90
21582;DHT22;10952;50.836;4.348;2022-10-17T03:36:45;19.00;99.90
21582;DHT22;10952;50.836;4.348;2022-10-17T03:39:11;19.00;99.90
21582;DHT22;10952;50.836;4.348;2022-10-17T03:41:38;18.90;99.90
21582;DHT22;10952;50.836;4.348;2022-10-17T03:44:04;18.90;99.90
21582;DHT22;10952;50.836;4.348;2022-10-17T03:46:29;18.90;99.90
21582;DHT22;10952;50.836;4.348;2022-10-17T03:48:55;18.90;99.90
21582;DHT22;10952;50.836;4.348;2022-10-17T03:51:21;18.90;99.90
21582;DHT22;10952;50.836;4.348;2022-10-17T03:53:46;18.90;99.90
21582;DHT22;10952;50.836;4.348;2022-10-17T03:56:15;18.90;99.90
21582;DHT22;10952;50.836;4.348;2022-10-17T03:58:41;18.90;99.90
21582;DHT22;10952;50.836;4.348;2022-10-17T04:01:08;18.90;99.90
21582;DHT22;10952;50.836;4.348;2022-10-17T04:03:35;18.90;99.90
21582;DHT22;10952;50.836;4.348;2022-10-17T04:06:02;18.90;99.90
21582;DHT22;10952;50.836;4.348;2022-10-17T04:08:28;18.90;99.90
21582;DHT22;10952;50.836;4.348;2022-10-17T04:11:00;18.90;99.90
21582;DHT22;10952;50.836;4.348;2022-10-17T04:13:28;18.90;99.90
21582;DHT22;10952;50.836;4.348;2022-10-17T04:16:05;18.90;99.90
21582;DHT22;10952;50.836;4.348;2022-10-17T04:18:32;19.00;99.90
21582;DHT22;10952;50.836;4.348;2022-10-17T04:21:02;18.90;99.90
21582;DHT22;10952;50.836;4.348;2022-10-17T04:23:28;18.90;99.90
21582;DHT22;10952;50.836;4.348;2022-10-17T04:25:58;18.90;99.90
21582;DHT22;10952;50.836;4.348;2022-10-17T04:28:25;18.90;99.90
21582;DHT22;10952;50.836;4.348;2022-10-17T04:31:03;18.90;99.90
21582;DHT22;10952;50.836;4.348;2022-10-17T04:33:30;18.90;99.90
21582;DHT22;10952;50.836;4.348;2022-10-17T04:35:59;18.90;99.90
21582;DHT22;10952;50.836;4.348;2022-10-17T04:38:26;18.90;99.90
21582;DHT22;10952;50.836;4.348;2022-10-17T04:40:52;18.90;99.90
21582;DHT22;10952;50.836;4.348;2022-10-17T04:43:17;18.80;99.90
21582;DHT22;10952;50.836;4.348;2022-10-17T04:45:43;18.80;99.90
21582;DHT22;10952;50.836;4.348;2022-10-17T04:48:09;18.80;99.90
21582;DHT22;10952;50.836;4.348;2022-10-17T04:50:35;18.80;99.90
21582;DHT22;10952;50.836;4.348;2022-10-17T04:53:00;18.90;99.90
21582;DHT22;10952;50.836;4.348;2022-10-17T04:55:26;18.90;99.90
21582;DHT22;10952;50.836;4.348;2022-10-17T04:57:52;18.80;99.90
21582;DHT22;10952;50.836;4.348;2022-10-17T05:00:17;18.90;99.90
21582;DHT22;10952;50.836;4.348;2022-10-17T05:02:43;18.90;99.90
21582;DHT22;10952;50.836;4.348;2022-10-17T05:05:08;18.90;99.90
21582;DHT22;10952;50.836;4.348;2022-10-17T05:07:34;18.80;99.90
21582;DHT22;10952;50.836;4.348;2022-10-17T05:10:00;18.90;99.90
21582;DHT22;10952;50.836;4.348;2022-10-17T05:12:25;18.80;99.90
21582;DHT22;10952;50.836;4.348;2022-10-17T05:14:51;18.80;99.90
21582;DHT22;10952;50.836;4.348;2022-10-17T05:17:17;18.80;99.90
21582;DHT22;10952;50.836;4.348;2022-10-17T05:19:42;18.80;99.90
21582;DHT22;10952;50.836;4.348;2022-10-17T05:22:08;18.80;99.90
21582;DHT22;10952;50.836;4.348;2022-10-17T05:24:33;18.90;99.90
21582;DHT22;10952;50.836;4.348;2022-10-17T05:26:59;18.90;99.90
21582;DHT22;10952;50.836;4.348;2022-10-17T05:29:25;18.90;99.90
21582;DHT22;10952;50.836;4.348;2022-10-17T05:31:51;18.90;99.90
21582;DHT22;10952;50.836;4.348;2022-10-17T05:34:16;18.90;99.90
21582;DHT22;10952;50.836;4.348;2022-10-17T05:36:42;18.80;99.90
21582;DHT22;10952;50.836;4.348;2022-10-17T05:39:07;18.90;99.90
21582;DHT22;10952;50.836;4.348;2022-10-17T05:41:33;18.90;99.90
21582;DHT22;10952;50.836;4.348;2022-10-17T05:43:59;18.90;99.90
21582;DHT22;10952;50.836;4.348;2022-10-17T05:46:24;18.90;99.90
21582;DHT22;10952;50.836;4.348;2022-10-17T05:48:50;18.90;99.90
21582;DHT22;10952;50.836;4.348;2022-10-17T05:51:16;18.90;99.90
21582;DHT22;10952;50.836;4.348;2022-10-17T05:53:42;18.90;99.90
21582;DHT22;10952;50.836;4.348;2022-10-17T05:56:09;18.90;99.90
21582;DHT22;10952;50.836;4.348;2022-10-17T05:58:35;18.90;99.90
21582;DHT22;10952;50.836;4.348;2022-10-17T06:01:05;19.00;99.90
21582;DHT22;10952;50.836;4.348;2022-10-17T06:03:31;18.90;99.90
21582;DHT22;10952;50.836;4.348;2022-10-17T06:06:06;19.00;99.90
21582;DHT22;10952;50.836;4.348;2022-10-17T06:08:33;19.00;99.90
21582;DHT22;10952;50.836;4.348;2022-10-17T06:10:59;19.00;99.90
21582;DHT22;10952;50.836;4.348;2022-10-17T06:13:25;19.00;99.90
21582;DHT22;10952;50.836;4.348;2022-10-17T06:15:50;18.90;99.90
21582;DHT22;10952;50.836;4.348;2022-10-17T06:18:16;18.90;99.90
21582;DHT22;10952;50.836;4.348;2022-10-17T06:20:43;18.90;99.90
21582;DHT22;10952;50.836;4.348;2022-10-17T06:23:08;19.00;99.90
21582;DHT22;10952;50.836;4.348;2022-10-17T06:25:35;19.00;99.90
21582;DHT22;10952;50.836;4.348;2022-10-17T06:28:00;19.00;99.90
21582;DHT22;10952;50.836;4.348;2022-10-17T06:30:26;19.00;99.90
21582;DHT22;10952;50.836;4.348;2022-10-17T06:32:52;19.00;99.90
21582;DHT22;10952;50.836;4.348;2022-10-17T06:35:19;19.00;99.90
21582;DHT22;10952;50.836;4.348;2022-10-17T06:37:44;19.00;99.90
21582;DHT22;10952;50.836;4.348;2022-10-17T06:40:11;19.10;99.90
21582;DHT22;10952;50.836;4.348;2022-10-17T06:42:37;19.10;99.90
21582;DHT22;10952;50.836;4.348;2022-10-17T06:45:04;19.10;99.90
21582;DHT22;10952;50.836;4.348;2022-10-17T06:47:30;19.20;99.90
21582;DHT22;10952;50.836;4.348;2022-10-17T06:49:55;19.40;99.90
21582;DHT22;10952;50.836;4.348;2022-10-17T06:52:21;19.50;99.90
21582;DHT22;10952;50.836;4.348;2022-10-17T06:54:47;19.50;99.90
21582;DHT22;10952;50.836;4.348;2022-10-17T06:57:13;19.60;99.90
21582;DHT22;10952;50.836;4.348;2022-10-17T06:59:38;19.50;99.90
21582;DHT22;10952;50.836;4.348;2022-10-17T07:02:04;19.50;99.90
21582;DHT22;10952;50.836;4.348;2022-10-17T07:04:30;19.40;99.90
21582;DHT22;10952;50.836;4.348;2022-10-17T07:06:56;19.40;99.90
21582;DHT22;10952;50.836;4.348;2022-10-17T07:09:22;19.50;99.90
21582;DHT22;10952;50.836;4.348;2022-10-17T07:11:48;19.50;99.90
21582;DHT22;10952;50.836;4.348;2022-10-17T07:14:14;19.50;99.90
21582;DHT22;10952;50.836;4.348;2022-10-17T07:16:40;19.60;99.90
21582;DHT22;10952;50.836;4.348;2022-10-17T07:19:05;19.60;99.90
21582;DHT22;10952;50.836;4.348;2022-10-17T07:21:31;19.60;99.90
21582;DHT22;10952;50.836;4.348;2022-10-17T07:23:57;19.60;99.90
21582;DHT22;10952;50.836;4.348;2022-10-17T07:26:23;19.50;99.90
21582;DHT22;10952;50.836;4.348;2022-10-17T07:28:51;19.40;99.90
21582;DHT22;10952;50.836;4.348;2022-10-17T07:31:19;19.40;99.90
21582;DHT22;10952;50.836;4.348;2022-10-17T07:33:45;19.30;99.90
21582;DHT22;10952;50.836;4.348;2022-10-17T07:36:11;19.10;99.90
21582;DHT22;10952;50.836;4.348;2022-10-17T07:38:37;19.00;99.90
21582;DHT22;10952;50.836;4.348;2022-10-17T07:41:05;18.90;99.90
21582;DHT22;10952;50.836;4.348;2022-10-17T07:43:31;18.90;99.90
21582;DHT22;10952;50.836;4.348;2022-10-17T07:45:59;18.90;99.90
21582;DHT22;10952;50.836;4.348;2022-10-17T07:48:24;18.80;99.90
21582;DHT22;10952;50.836;4.348;2022-10-17T07:50:50;18.70;99.90
21582;DHT22;10952;50.836;4.348;2022-10-17T07:53:16;18.60;99.90
21582;DHT22;10952;50.836;4.348;2022-10-17T07:55:42;18.50;99.90
21582;DHT22;10952;50.836;4.348;2022-10-17T07:58:11;18.60;99.90
21582;DHT22;10952;50.836;4.348;2022-10-17T08:00:37;18.50;99.90
21582;DHT22;10952;50.836;4.348;2022-10-17T08:03:04;18.60;99.90
21582;DHT22;10952;50.836;4.348;2022-10-17T08:05:30;18.60;99.90
21582;DHT22;10952;50.836;4.348;2022-10-17T08:07:56;18.60;99.90
21582;DHT22;10952;50.836;4.348;2022-10-17T08:10:22;18.70;99.90
21582;DHT22;10952;50.836;4.348;2022-10-17T08:12:53;18.70;99.90
21582;DHT22;10952;50.836;4.348;2022-10-17T08:15:19;18.70;99.90
21582;DHT22;10952;50.836;4.348;2022-10-17T08:17:45;18.80;99.90
21582;DHT22;10952;50.836;4.348;2022-10-17T08:20:11;18.70;99.90
21582;DHT22;10952;50.836;4.348;2022-10-17T08:22:37;18.60;99.90
21582;DHT22;10952;50.836;4.348;2022-10-17T08:25:03;18.60;99.90
21582;DHT22;10952;50.836;4.348;2022-10-17T08:27:29;18.50;99.90
21582;DHT22;10952;50.836;4.348;2022-10-17T08:29:54;18.50;99.90
21582;DHT22;10952;50.836;4.348;2022-10-17T08:32:22;18.50;99.90
21582;DHT22;10952;50.836;4.348;2022-10-17T08:34:50;18.60;99.90
21582;DHT22;10952;50.836;4.348;2022-10-17T08:37:16;18.60;99.90
21582;DHT22;10952;50.836;4.348;2022-10-17T08:39:42;18.50;99.90
21582;DHT22;10952;50.836;4.348;2022-10-17T08:42:25;18.40;99.90
21582;DHT22;10952;50.836;4.348;2022-10-17T08:48:01;18.40;99.90
21582;DHT22;10952;50.836;4.348;2022-10-17T08:53:48;18.40;99.90
21582;DHT22;10952;50.836;4.348;2022-10-17T08:56:22;18.50;99.90
21582;DHT22;10952;50.836;4.348;2022-10-17T08:58:48;18.40;99.90
21582;DHT22;10952;50.836;4.348;2022-10-17T09:01:39;18.50;99.90
21582;DHT22;10952;50.836;4.348;2022-10-17T09:06:51;18.50;99.90
21582;DHT22;10952;50.836;4.348;2022-10-17T09:18:11;18.60;99.90
21582;DHT22;10952;50.836;4.348;2022-10-17T09:20:51;18.60;99.90
21582;DHT22;10952;50.836;4.348;2022-10-17T09:25:58;18.70;99.90
21582;DHT22;10952;50.836;4.348;2022-10-17T09:28:35;18.80;99.90
21582;DHT22;10952;50.836;4.348;2022-10-17T09:31:23;18.90;99.90
21582;DHT22;10952;50.836;4.348;2022-10-17T09:33:51;18.90;99.90
21582;DHT22;10952;50.836;4.348;2022-10-17T09:36:33;19.00;99.90
21582;DHT22;10952;50.836;4.348;2022-10-17T09:39:22;19.10;99.90
21582;DHT22;10952;50.836;4.348;2022-10-17T09:44:27;19.20;99.90
21582;DHT22;10952;50.836;4.348;2022-10-17T09:49:48;19.30;99.90
21582;DHT22;10952;50.836;4.348;2022-10-17T09:52:32;19.40;99.90
21582;DHT22;10952;50.836;4.348;2022-10-17T09:55:03;19.30;99.90
21582;DHT22;10952;50.836;4.348;2022-10-17T09:57:56;19.30;99.90
21582;DHT22;10952;50.836;4.348;2022-10-17T10:00:35;19.40;99.90
21582;DHT22;10952;50.836;4.348;2022-10-17T10:03:30;19.40;99.90
21582;DHT22;10952;50.836;4.348;2022-10-17T10:06:15;19.40;99.90
21582;DHT22;10952;50.836;4.348;2022-10-17T10:08:54;19.40;99.90
21582;DHT22;10952;50.836;4.348;2022-10-17T10:14:11;19.50;99.90
21582;DHT22;10952;50.836;4.348;2022-10-17T10:16:42;19.40;99.90
21582;DHT22;10952;50.836;4.348;2022-10-17T10:19:29;19.40;99.90
21582;DHT22;10952;50.836;4.348;2022-10-17T10:22:14;19.40;99.90
21582;DHT22;10952;50.836;4.348;2022-10-17T10:24:40;19.40;99.90
21582;DHT22;10952;50.836;4.348;2022-10-17T10:27:12;19.40;99.90
21582;DHT22;10952;50.836;4.348;2022-10-17T10:29:47;19.40;99.90
21582;DHT22;10952;50.836;4.348;2022-10-17T10:32:24;19.50;99.90
21582;DHT22;10952;50.836;4.348;2022-10-17T10:35:21;19.60;99.90
21582;DHT22;10952;50.836;4.348;2022-10-17T10:37:52;19.70;99.90
21582;DHT22;10952;50.836;4.348;2022-10-17T10:40:31;19.80;99.90
21582;DHT22;10952;50.836;4.348;2022-10-17T10:42:59;19.80;99.90
21582;DHT22;10952;50.836;4.348;2022-10-17T10:45:39;19.70;99.90
21582;DHT22;10952;50.836;4.348;2022-10-17T10:48:25;19.80;99.90
21582;DHT22;10952;50.836;4.348;2022-10-17T10:50:59;19.70;99.90
21582;DHT22;10952;50.836;4.348;2022-10-17T11:01:45;19.70;99.90
21582;DHT22;10952;50.836;4.348;2022-10-17T11:04:16;19.80;99.90
21582;DHT22;10952;50.836;4.348;2022-10-17T11:06:44;19.80;99.90
21582;DHT22;10952;50.836;4.348;2022-10-17T11:09:33;19.70;99.90
21582;DHT22;10952;50.836;4.348;2022-10-17T11:17:16;19.70;99.90
21582;DHT22;10952;50.836;4.348;2022-10-17T11:25:13;19.60;99.90
21582;DHT22;10952;50.836;4.348;2022-10-17T11:27:39;19.50;99.90
21582;DHT22;10952;50.836;4.348;2022-10-17T11:30:06;19.60;99.90
21582;DHT22;10952;50.836;4.348;2022-10-17T11:32:51;19.70;99.90
21582;DHT22;10952;50.836;4.348;2022-10-17T11:35:29;19.80;99.90
21582;DHT22;10952;50.836;4.348;2022-10-17T11:41:02;19.70;99.90
21582;DHT22;10952;50.836;4.348;2022-10-17T11:46:42;19.80;99.90
21582;DHT22;10952;50.836;4.348;2022-10-17T11:49:15;19.80;99.90
21582;DHT22;10952;50.836;4.348;2022-10-17T11:54:31;19.90;99.90
21582;DHT22;10952;50.836;4.348;2022-10-17T12:02:49;19.80;99.90
21582;DHT22;10952;50.836;4.348;2022-10-17T12:05:42;19.80;99.90
21582;DHT22;10952;50.836;4.348;2022-10-17T12:11:15;19.90;99.90
21582;DHT22;10952;50.836;4.348;2022-10-17T12:18:50;19.80;99.90
21582;DHT22;10952;50.836;4.348;2022-10-17T12:21:17;19.90;99.90
21582;DHT22;10952;50.836;4.348;2022-10-17T12:23:51;20.00;99.90
21582;DHT22;10952;50.836;4.348;2022-10-17T12:26:28;20.10;99.90
21582;DHT22;10952;50.836;4.348;2022-10-17T12:28:54;20.10;99.90
21582;DHT22;10952;50.836;4.348;2022-10-17T12:31:22;20.10;99.90
21582;DHT22;10952;50.836;4.348;2022-10-17T12:33:53;20.00;99.90
21582;DHT22;10952;50.836;4.348;2022-10-17T12:49:23;20.00;99.90
21582;DHT22;10952;50.836;4.348;2022-10-17T13:03:33;20.30;99.90
21582;DHT22;10952;50.836;4.348;2022-10-17T13:06:06;20.30;99.90
21582;DHT22;10952;50.836;4.348;2022-10-17T13:08:36;20.30;99.90
21582;DHT22;10952;50.836;4.348;2022-10-17T13:11:03;20.30;99.90
21582;DHT22;10952;50.836;4.348;2022-10-17T13:13:45;20.30;99.90
21582;DHT22;10952;50.836;4.348;2022-10-17T13:16:30;20.40;99.90
21582;DHT22;10952;50.836;4.348;2022-10-17T13:18:57;20.40;99.90
21582;DHT22;10952;50.836;4.348;2022-10-17T13:21:23;20.40;99.90
21582;DHT22;10952;50.836;4.348;2022-10-17T13:23:49;20.50;99.90
21582;DHT22;10952;50.836;4.348;2022-10-17T13:26:23;20.50;99.90
21582;DHT22;10952;50.836;4.348;2022-10-17T13:29:02;20.70;99.90
21582;DHT22;10952;50.836;4.348;2022-10-17T13:31:34;20.60;99.90
21582;DHT22;10952;50.836;4.348;2022-10-17T13:34:03;20.60;99.90
21582;DHT22;10952;50.836;4.348;2022-10-17T13:36:30;20.60;99.90
21582;DHT22;10952;50.836;4.348;2022-10-17T13:38:59;20.50;99.90
21582;DHT22;10952;50.836;4.348;2022-10-17T13:41:28;20.50;99.90
21582;DHT22;10952;50.836;4.348;2022-10-17T13:43:55;20.50;99.90
21582;DHT22;10952;50.836;4.348;2022-10-17T13:46:32;20.60;99.90
21582;DHT22;10952;50.836;4.348;2022-10-17T13:48:59;20.60;99.90
21582;DHT22;10952;50.836;4.348;2022-10-17T13:51:33;20.60;99.90
21582;DHT22;10952;50.836;4.348;2022-10-17T13:53:59;20.60;99.90
21582;DHT22;10952;50.836;4.348;2022-10-17T13:56:26;20.60;99.90
21582;DHT22;10952;50.836;4.348;2022-10-17T14:01:23;20.60;99.90
21582;DHT22;10952;50.836;4.348;2022-10-17T14:03:49;20.60;99.90
21582;DHT22;10952;50.836;4.348;2022-10-17T14:06:22;20.60;99.90
21582;DHT22;10952;50.836;4.348;2022-10-17T14:08:53;20.60;99.90
21582;DHT22;10952;50.836;4.348;2022-10-17T14:14:02;20.60;99.90
21582;DHT22;10952;50.836;4.348;2022-10-17T14:16:40;20.50;99.90
21582;DHT22;10952;50.836;4.348;2022-10-17T14:22:22;20.50;99.90
21582;DHT22;10952;50.836;4.348;2022-10-17T14:24:49;20.60;99.90
21582;DHT22;10952;50.836;4.348;2022-10-17T14:29:57;20.50;99.90
21582;DHT22;10952;50.836;4.348;2022-10-17T14:32:26;20.60;99.90
21582;DHT22;10952;50.836;4.348;2022-10-17T14:34:54;20.60;99.90
21582;DHT22;10952;50.836;4.348;2022-10-17T14:37:31;20.70;99.90
21582;DHT22;10952;50.836;4.348;2022-10-17T14:40:00;20.70;99.90
21582;DHT22;10952;50.836;4.348;2022-10-17T14:42:26;20.70;99.90
21582;DHT22;10952;50.836;4.348;2022-10-17T14:44:53;20.60;99.90
21582;DHT22;10952;50.836;4.348;2022-10-17T14:47:24;20.60;99.90
21582;DHT22;10952;50.836;4.348;2022-10-17T14:50:22;20.50;99.90
21582;DHT22;10952;50.836;4.348;2022-10-17T14:55:37;20.80;99.90
21582;DHT22;10952;50.836;4.348;2022-10-17T14:58:21;20.70;99.90
21582;DHT22;10952;50.836;4.348;2022-10-17T15:00:48;20.70;99.90
21582;DHT22;10952;50.836;4.348;2022-10-17T15:03:14;20.60;99.90
21582;DHT22;10952;50.836;4.348;2022-10-17T15:05:39;20.40;99.90
21582;DHT22;10952;50.836;4.348;2022-10-17T15:08:14;20.50;99.90
21582;DHT22;10952;50.836;4.348;2022-10-17T15:10:40;20.50;99.90
21582;DHT22;10952;50.836;4.348;2022-10-17T15:13:10;20.40;99.90
21582;DHT22;10952;50.836;4.348;2022-10-17T15:15:37;20.40;99.90
21582;DHT22;10952;50.836;4.348;2022-10-17T15:18:03;20.40;99.90
21582;DHT22;10952;50.836;4.348;2022-10-17T15:20:29;20.40;99.90
21582;DHT22;10952;50.836;4.348;2022-10-17T15:23:00;20.40;99.90
21582;DHT22;10952;50.836;4.348;2022-10-17T15:25:27;20.40;99.90
21582;DHT22;10952;50.836;4.348;2022-10-17T15:27:53;20.30;99.90
21582;DHT22;10952;50.836;4.348;2022-10-17T15:30:27;20.30;99.90
21582;DHT22;10952;50.836;4.348;2022-10-17T15:32:53;20.30;99.90
21582;DHT22;10952;50.836;4.348;2022-10-17T15:35:20;20.30;99.90
21582;DHT22;10952;50.836;4.348;2022-10-17T15:37:46;20.20;99.90
21582;DHT22;10952;50.836;4.348;2022-10-17T15:40:21;20.20;99.90
21582;DHT22;10952;50.836;4.348;2022-10-17T15:42:47;20.20;99.90
21582;DHT22;10952;50.836;4.348;2022-10-17T15:45:15;20.20;99.90
21582;DHT22;10952;50.836;4.348;2022-10-17T15:47:42;20.20;99.90
21582;DHT22;10952;50.836;4.348;2022-10-17T15:50:13;20.30;99.90
21582;DHT22;10952;50.836;4.348;2022-10-17T15:52:39;20.30;99.90
21582;DHT22;10952;50.836;4.348;2022-10-17T15:55:07;20.30;99.90
21582;DHT22;10952;50.836;4.348;2022-10-17T15:57:36;20.30;99.90
21582;DHT22;10952;50.836;4.348;2022-10-17T16:00:05;20.20;99.90
21582;DHT22;10952;50.836;4.348;2022-10-17T16:02:31;20.30;99.90
21582;DHT22;10952;50.836;4.348;2022-10-17T16:04:58;20.30;99.90
21582;DHT22;10952;50.836;4.348;2022-10-17T16:07:24;20.20;99.90
21582;DHT22;10952;50.836;4.348;2022-10-17T16:09:50;20.20;99.90
21582;DHT22;10952;50.836;4.348;2022-10-17T16:12:18;20.10;99.90
21582;DHT22;10952;50.836;4.348;2022-10-17T16:14:46;20.10;99.90
21582;DHT22;10952;50.836;4.348;2022-10-17T16:17:13;20.10;99.90
21582;DHT22;10952;50.836;4.348;2022-10-17T16:19:40;20.10;99.90
21582;DHT22;10952;50.836;4.348;2022-10-17T16:22:09;20.00;99.90
21582;DHT22;10952;50.836;4.348;2022-10-17T16:24:36;20.00;99.90
21582;DHT22;10952;50.836;4.348;2022-10-17T16:27:01;20.10;99.90
21582;DHT22;10952;50.836;4.348;2022-10-17T16:29:27;20.10;99.90
21582;DHT22;10952;50.836;4.348;2022-10-17T16:31:52;20.10;99.90
21582;DHT22;10952;50.836;4.348;2022-10-17T16:34:18;20.00;99.90
21582;DHT22;10952;50.836;4.348;2022-10-17T16:36:44;19.90;99.90
21582;DHT22;10952;50.836;4.348;2022-10-17T16:39:09;19.90;99.90
21582;DHT22;10952;50.836;4.348;2022-10-17T16:41:37;19.90;99.90
21582;DHT22;10952;50.836;4.348;2022-10-17T16:44:05;19.80;99.90
21582;DHT22;10952;50.836;4.348;2022-10-17T16:46:32;19.80;99.90
21582;DHT22;10952;50.836;4.348;2022-10-17T16:49:00;19.70;99.90
21582;DHT22;10952;50.836;4.348;2022-10-17T16:51:25;19.70;99.90
21582;DHT22;10952;50.836;4.348;2022-10-17T16:53:53;19.60;99.90
21582;DHT22;10952;50.836;4.348;2022-10-17T16:56:22;19.60;99.90
21582;DHT22;10952;50.836;4.348;2022-10-17T16:58:49;19.50;99.90
21582;DHT22;10952;50.836;4.348;2022-10-17T17:01:18;19.50;99.90
21582;DHT22;10952;50.836;4.348;2022-10-17T17:03:45;19.40;99.90
21582;DHT22;10952;50.836;4.348;2022-10-17T17:06:22;19.40;99.90
21582;DHT22;10952;50.836;4.348;2022-10-17T17:08:49;19.50;99.90
21582;DHT22;10952;50.836;4.348;2022-10-17T17:11:16;19.30;99.90
21582;DHT22;10952;50.836;4.348;2022-10-17T17:13:42;19.40;99.90
21582;DHT22;10952;50.836;4.348;2022-10-17T17:16:10;19.40;99.90
21582;DHT22;10952;50.836;4.348;2022-10-17T17:18:37;19.40;99.90
21582;DHT22;10952;50.836;4.348;2022-10-17T17:21:04;19.20;99.90
21582;DHT22;10952;50.836;4.348;2022-10-17T17:23:32;19.20;99.90
21582;DHT22;10952;50.836;4.348;2022-10-17T17:26:00;19.20;99.90
21582;DHT22;10952;50.836;4.348;2022-10-17T17:28:26;19.10;99.90
21582;DHT22;10952;50.836;4.348;2022-10-17T17:30:52;19.10;99.90
21582;DHT22;10952;50.836;4.348;2022-10-17T17:33:18;19.00;99.90
21582;DHT22;10952;50.836;4.348;2022-10-17T17:35:44;19.00;99.90
21582;DHT22;10952;50.836;4.348;2022-10-17T17:38:10;18.90;99.90
21582;DHT22;10952;50.836;4.348;2022-10-17T17:40:35;18.80;99.90
21582;DHT22;10952;50.836;4.348;2022-10-17T17:43:01;18.90;99.90
21582;DHT22;10952;50.836;4.348;2022-10-17T17:45:26;18.80;99.90
21582;DHT22;10952;50.836;4.348;2022-10-17T17:47:52;18.80;99.90
21582;DHT22;10952;50.836;4.348;2022-10-17T17:50:19;18.70;99.90
21582;DHT22;10952;50.836;4.348;2022-10-17T17:52:45;18.60;99.90
21582;DHT22;10952;50.836;4.348;2022-10-17T17:55:13;18.60;99.90
21582;DHT22;10952;50.836;4.348;2022-10-17T17:57:39;18.60;99.90
21582;DHT22;10952;50.836;4.348;2022-10-17T18:00:05;18.60;99.90
21582;DHT22;10952;50.836;4.348;2022-10-17T18:02:31;18.70;99.90
21582;DHT22;10952;50.836;4.348;2022-10-17T18:04:56;18.60;99.90